Aeroporto :







RITROVATECI SU...

 
LOGIN :

Iscrizione | Disclaimer

   EN    FR    IT 

 









Sommario :    VFR   VFR Marginale   IFR   IFR Intensivo   IFR Molto Intensivo
Visibilità : 
Base nubi : 
>= 8 km
>= 3000ft
5 / 8 km
1000 / 3000 ft
1500m / 5 km
500 / 1000 ft
800 / 1500m
200 / 500 ft
< 800m
< 200 ft
Simboli :   Temporali  Nebbia  Neve Forte  Precipitazioni Forti  Vento > 20 kt






- Altitudine del aeroporto : 124 ft
- Codice IATA : YGV


CYGV - Havre St Pierre

ULTIMO METAR :
  • 040800Z AUTO 12003KT 9SM OVC055 05/04 A2953 RMK SLP002

METARs OBSOLETI :
  • 040700Z AUTO 13002KT 9SM BKN048 OVC075 05/04 A2952 RMK SLP000
  • 040600Z AUTO 17003KT 130V210 9SM OVC044 05/04 A2951 RMK SLP998

TAF TAF CYGV
Valido dal 04 a 08 ore il 04 a 20 ore UTC


040738Z 0408/0420 VRB03KT P6SM BKN050
BECMG 0412/0414 20010G20KT FEW050
FM041800 24010G20KT P6SM FEW200 RMK FCST BASED ON AUTO OBS. NXT FCST BY 041400Z
FIR CZUL / America del Nord



MetMap, La meteo Aeronautica in un colpo d'occhio ! - Copyright ORBIFLY Dicembre 2007 - Disclaimer

ORBIFLY MET'MAP TEAM :

Programmazione e sviluppo : Alexandra Zaïnal
Concezione : Baudouin d'Aumeries
Aiuto per la programmazione : Marc-Olivier Méhu
Supporto tecnico e logistico : Manuel Goepfert
Aiuto per la traduzione : Arnaldo La Scala

Contatto : metmap@orbifly.com




FONTI E CREDITI :

   NOAA